Time;durP1;ratioP1;P1;durP2;ratioP2;P2;SDS_P1;SDS_P2;PMS_P1;PMS_P2;Temp;Humidity;BMP_temperature;BMP_pressure;BME280_temperature;BME280_humidity;BME280_pressure;Samples;Min_cycle;Max_cycle;Signal;HPM_P1;HPM_P2
2023/12/25 00:01:10;;;;;;;1.10;0.77;;;;;;;5.45;93.21;95342.31;5132025;28;20515;-56
2023/12/25 00:03:38;;;;;;;1.73;1.63;;;;;;;5.75;95.66;95404.09;5131960;27;20445;-56
2023/12/25 00:06:19;;;;;;;6.00;3.87;;;;;;;5.13;99.27;95345.41;5131316;28;20525;-56
2023/12/25 00:08:51;;;;;;;3.23;2.07;;;;;;;5.35;99.52;95402.56;5132201;27;20430;-55
2023/12/25 00:11:21;;;;;;;2.57;2.43;;;;;;;5.40;98.04;95407.91;5131738;28;21023;-56
2023/12/25 00:13:52;;;;;;;1.50;1.27;;;;;;;5.47;98.02;95408.56;5131979;28;20445;-56
2023/12/25 00:16:20;;;;;;;1.33;1.23;;;;;;;5.66;94.85;95402.09;5132245;28;20427;-55
2023/12/25 00:18:49;;;;;;;2.67;2.00;;;;;;;5.78;93.27;95402.84;5132238;27;20518;-56
2023/12/25 00:21:19;;;;;;;6.73;2.13;;;;;;;5.75;91.90;95400.66;5132051;28;20426;-56
2023/12/25 00:23:48;;;;;;;1.93;1.83;;;;;;;5.59;95.08;95396.19;5132586;27;20491;-56
2023/12/25 00:26:16;;;;;;;1.07;0.97;;;;;;;5.82;92.69;95401.31;5108219;27;20470;-55
2023/12/25 00:28:45;;;;;;;9.40;1.57;;;;;;;5.72;92.74;95406.41;5136186;27;20463;-56
2023/12/25 00:31:13;;;;;;;3.27;2.93;;;;;;;5.56;93.07;95415.06;5136114;27;20923;-55
2023/12/25 00:33:42;;;;;;;1.87;1.77;;;;;;;5.61;92.57;95404.63;5122710;27;20474;-55
2023/12/25 00:36:12;;;;;;;2.00;1.80;;;;;;;5.62;92.35;95404.38;5135994;27;20525;-56
2023/12/25 00:38:43;;;;;;;6.70;2.70;;;;;;;5.63;91.64;95403.38;5135601;27;20446;-56
2023/12/25 00:41:11;;;;;;;5.73;1.97;;;;;;;5.68;92.13;95411.34;5134432;27;20942;-55
2023/12/25 00:43:40;;;;;;;0.80;0.77;;;;;;;5.58;94.25;95413.78;5135509;27;20441;-55
2023/12/25 00:46:09;;;;;;;1.70;1.33;;;;;;;5.63;93.13;95413.06;5136123;27;20442;-56
2023/12/25 00:48:37;;;;;;;1.67;1.57;;;;;;;5.73;91.37;95405.38;5135013;27;20481;-55
2023/12/25 00:51:06;;;;;;;6.10;2.00;;;;;;;5.77;90.79;95412.53;5135302;27;20470;-56
2023/12/25 00:53:35;;;;;;;2.20;2.10;;;;;;;5.63;90.97;95408.63;5135244;27;20438;-55
2023/12/25 00:56:06;;;;;;;2.43;2.33;;;;;;;5.52;93.45;95412.09;5135407;27;20442;-55
2023/12/25 00:58:34;;;;;;;5.37;3.03;;;;;;;5.50;93.07;95419.41;5121239;27;20438;-54
2023/12/25 01:01:03;;;;;;;2.70;2.60;;;;;;;5.41;93.69;95406.91;5135757;27;20517;-56
2023/12/25 01:03:32;;;;;;;3.57;2.17;;;;;;;5.51;93.38;95414.97;5135776;27;20513;-55
2023/12/25 01:06:00;;;;;;;4.17;3.53;;;;;;;5.64;91.83;95412.06;5135039;27;20474;-55
2023/12/25 01:08:29;;;;;;;2.63;1.67;;;;;;;5.24;94.55;95421.81;5135705;27;20530;-56
2023/12/25 01:10:57;;;;;;;5.13;1.90;;;;;;;5.42;94.50;95413.72;5135287;27;20926;-55
2023/12/25 01:13:27;;;;;;;1.70;1.07;;;;;;;5.56;92.68;95420.31;5135236;27;20477;-55
2023/12/25 01:15:56;;;;;;;2.77;1.13;;;;;;;5.63;91.78;95419.16;5135075;27;20427;-55
2023/12/25 01:18:25;;;;;;;2.20;1.33;;;;;;;5.70;91.38;95426.88;5135081;27;20434;-55
2023/12/25 01:20:54;;;;;;;1.33;0.83;;;;;;;5.09;91.93;95338.22;5135151;27;20517;-55
2023/12/25 01:23:22;;;;;;;1.53;1.43;;;;;;;5.79;91.52;95421.00;5135510;27;20550;-55
2023/12/25 01:25:51;;;;;;;1.20;1.10;;;;;;;5.86;89.36;95409.56;5134321;27;20439;-55
2023/12/25 01:28:19;;;;;;;0.97;0.97;;;;;;;6.04;88.16;95402.25;5134926;27;20657;-56
2023/12/25 01:30:49;;;;;;;1.43;1.33;;;;;;;6.11;89.32;95388.94;5134908;27;20442;-55
2023/12/25 01:33:18;;;;;;;2.47;2.10;;;;;;;6.26;87.94;95387.34;5134851;27;20481;-56
2023/12/25 01:35:47;;;;;;;1.00;1.00;;;;;;;6.35;87.18;95404.31;5134485;27;20462;-55
2023/12/25 01:38:15;;;;;;;1.00;0.70;;;;;;;6.10;88.10;95409.19;5134812;27;20445;-55
2023/12/25 01:40:45;;;;;;;3.23;1.53;;;;;;;5.63;89.16;95377.06;5134498;27;20942;-56
2023/12/25 01:43:13;;;;;;;0.40;0.40;;;;;;;6.05;89.85;95408.28;5134893;27;20805;-55
2023/12/25 01:45:42;;;;;;;0.70;0.70;;;;;;;6.17;86.54;95409.81;5108207;27;20470;-55
2023/12/25 01:48:13;;;;;;;5.20;1.03;;;;;;;6.38;85.81;95406.47;5133835;27;20527;-55
2023/12/25 01:50:41;;;;;;;0.70;0.60;;;;;;;6.32;85.16;95410.06;5134752;27;20467;-56
2023/12/25 01:53:10;;;;;;;2.57;1.50;;;;;;;6.30;85.21;95409.50;5133725;27;20438;-56
2023/12/25 01:55:38;;;;;;;1.33;0.40;;;;;;;6.39;85.60;95413.34;5134563;27;20512;-56
2023/12/25 01:58:07;;;;;;;1.07;0.77;;;;;;;6.29;84.65;95384.25;5133166;27;20427;-55
2023/12/25 02:00:35;;;;;;;1.57;0.40;;;;;;;6.03;85.39;95408.53;5134547;27;20495;-55
2023/12/25 02:03:05;;;;;;;0.70;0.70;;;;;;;5.66;89.36;95389.75;5134126;27;20943;-55
2023/12/25 02:05:35;;;;;;;2.13;1.93;;;;;;;6.03;87.45;95403.28;5134052;27;20434;-55
2023/12/25 02:08:04;;;;;;;1.77;1.67;;;;;;;5.81;88.20;95389.22;5133904;27;20531;-56
2023/12/25 02:10:33;;;;;;;1.10;1.00;;;;;;;5.92;86.73;95391.00;5134191;27;20445;-56
2023/12/25 02:13:05;;;;;;;1.43;1.33;;;;;;;5.85;85.87;95390.34;5133963;27;20495;-55
2023/12/25 02:15:34;;;;;;;5.50;2.17;;;;;;;5.88;84.79;95389.88;5134052;27;20806;-56
2023/12/25 02:18:03;;;;;;;3.90;0.83;;;;;;;5.94;83.90;95390.78;5133554;27;20529;-56
2023/12/25 02:20:34;;;;;;;0.70;0.70;;;;;;;5.85;83.62;95363.25;5133613;27;20485;-55
2023/12/25 02:23:07;;;;;;;1.67;1.60;;;;;;;6.08;83.72;95384.94;5133544;27;20892;-54
2023/12/25 02:25:38;;;;;;;1.20;1.07;;;;;;;6.04;83.11;95386.47;5133640;27;20558;-55
2023/12/25 02:28:08;;;;;;;5.50;1.27;;;;;;;6.10;83.40;95403.91;5133448;27;20523;-55
2023/12/25 02:30:37;;;;;;;5.30;1.13;;;;;;;5.88;85.07;95395.16;5133032;27;20442;-55
2023/12/25 02:33:05;;;;;;;1.97;1.13;;;;;;;6.13;86.12;95400.81;5133801;27;20441;-55
2023/12/25 02:35:34;;;;;;;0.80;0.80;;;;;;;5.79;86.18;95393.91;5132845;27;20446;-55
2023/12/25 02:38:03;;;;;;;3.20;1.70;;;;;;;5.80;84.92;95377.09;5133031;27;20442;-55
2023/12/25 02:40:32;;;;;;;5.30;1.60;;;;;;;5.98;83.36;95383.97;5132067;27;20435;-55
2023/12/25 02:43:00;;;;;;;1.67;0.70;;;;;;;6.24;91.73;95378.91;5133086;27;20430;-54
2023/12/25 02:45:30;;;;;;;2.93;0.87;;;;;;;6.13;85.78;95392.94;5132184;27;20859;-55
2023/12/25 02:47:59;;;;;;;0.90;0.90;;;;;;;5.98;84.27;95386.63;5132264;27;20466;-55
2023/12/25 02:50:28;;;;;;;2.83;2.73;;;;;;;5.72;84.99;95369.59;5132311;27;20434;-55
2023/12/25 02:52:57;;;;;;;2.43;2.17;;;;;;;5.86;83.98;95380.63;5133335;27;20431;-55
2023/12/25 02:55:26;;;;;;;0.97;0.87;;;;;;;5.70;86.04;95392.69;5132984;27;20828;-55
2023/12/25 02:57:54;;;;;;;1.70;0.97;;;;;;;5.33;88.12;95399.38;5132798;27;20438;-56
2023/12/25 03:00:23;;;;;;;1.63;1.53;;;;;;;5.35;86.82;95397.31;5132636;27;20435;-55
2023/12/25 03:02:54;;;;;;;0.77;0.77;;;;;;;5.54;86.33;95409.25;5132169;27;20442;-55
2023/12/25 03:05:22;;;;;;;6.97;0.50;;;;;;;5.75;85.49;95404.09;5132501;27;20448;-56
2023/12/25 03:07:51;;;;;;;1.70;1.20;;;;;;;5.78;84.71;95400.19;5132090;27;20441;-55
2023/12/25 03:10:20;;;;;;;1.80;1.70;;;;;;;5.72;84.52;95396.69;5132304;27;20438;-55
2023/12/25 03:12:48;;;;;;;2.40;1.30;;;;;;;5.72;83.82;95401.13;5132405;27;20488;-56
2023/12/25 03:15:17;;;;;;;1.63;1.63;;;;;;;5.64;84.71;95394.44;5132668;27;20426;-56
2023/12/25 03:17:45;;;;;;;2.93;1.60;;;;;;;5.72;84.34;95383.53;5132802;27;20435;-56
2023/12/25 03:20:15;;;;;;;3.53;1.47;;;;;;;5.70;84.54;95398.75;5132694;27;20430;-55
2023/12/25 03:22:44;;;;;;;2.37;1.40;;;;;;;5.74;83.95;95393.84;5132822;27;20442;-55
2023/12/25 03:25:13;;;;;;;0.50;0.50;;;;;;;5.31;86.89;95383.06;5132580;27;20435;-55
2023/12/25 03:27:41;;;;;;;1.27;1.27;;;;;;;5.22;85.66;95392.31;5132276;27;20801;-55
2023/12/25 03:30:11;;;;;;;0.70;0.70;;;;;;;5.12;89.43;95385.84;5132868;27;20473;-56
2023/12/25 03:32:40;;;;;;;1.80;1.07;;;;;;;5.41;88.46;95399.00;5121883;27;20434;-56
2023/12/25 03:35:09;;;;;;;1.20;0.60;;;;;;;5.16;88.36;95390.66;5132073;27;20530;-56
2023/12/25 03:37:39;;;;;;;2.17;0.67;;;;;;;5.48;87.46;95387.31;5132576;27;20439;-56
2023/12/25 03:40:09;;;;;;;0.70;0.70;;;;;;;5.60;85.37;95385.44;5132213;28;20922;-56
2023/12/25 03:42:37;;;;;;;1.63;1.33;;;;;;;5.55;85.68;95403.75;5132334;28;20522;-56
2023/12/25 03:45:07;;;;;;;4.90;0.47;;;;;;;5.62;84.83;95393.06;5131979;28;20495;-56
2023/12/25 03:47:35;;;;;;;1.43;1.10;;;;;;;5.70;84.65;95404.00;5131877;28;20430;-56
2023/12/25 03:50:04;;;;;;;1.37;0.73;;;;;;;5.85;84.10;95410.59;5131978;28;20473;-56
2023/12/25 03:52:33;;;;;;;0.53;0.53;;;;;;;5.92;83.42;95416.53;5132222;27;20497;-55
2023/12/25 03:55:03;;;;;;;0.70;0.70;;;;;;;5.75;82.84;95414.63;5118471;28;20430;-57
2023/12/25 03:57:32;;;;;;;1.47;1.37;;;;;;;5.56;83.84;95415.06;5132471;27;20435;-55
2023/12/25 04:00:00;;;;;;;1.13;1.00;;;;;;;5.40;86.08;95427.13;5132246;27;20453;-55
2023/12/25 04:02:29;;;;;;;0.70;0.70;;;;;;;5.14;88.48;95428.44;5136234;27;20434;-56
2023/12/25 04:04:57;;;;;;;1.17;0.90;;;;;;;5.06;91.84;95428.00;5136277;27;20966;-56
2023/12/25 04:07:26;;;;;;;4.93;1.00;;;;;;;5.37;90.57;95426.78;5136538;27;20826;-54
2023/12/25 04:09:55;;;;;;;1.70;1.60;;;;;;;5.61;90.47;95423.03;5109683;27;20497;-55
2023/12/25 04:12:25;;;;;;;3.03;1.03;;;;;;;5.68;88.99;95426.31;5136441;27;20438;-56
2023/12/25 04:14:53;;;;;;;8.73;0.80;;;;;;;5.76;93.73;95431.19;5136304;27;20491;-55
2023/12/25 04:17:22;;;;;;;1.33;1.10;;;;;;;5.60;92.92;95431.94;5135660;27;20446;-55
2023/12/25 04:19:51;;;;;;;1.03;0.83;;;;;;;5.69;89.36;95428.69;5136176;27;21003;-55
2023/12/25 04:22:19;;;;;;;0.50;0.50;;;;;;;5.72;86.57;95430.06;5135919;27;20885;-56
2023/12/25 04:24:48;;;;;;;0.83;0.83;;;;;;;5.72;85.57;95432.69;5136014;27;20451;-55
2023/12/25 04:27:18;;;;;;;0.90;0.50;;;;;;;5.77;85.89;95435.41;5135844;27;20597;-55
2023/12/25 04:29:47;;;;;;;1.03;0.90;;;;;;;5.71;84.40;95445.06;5135926;27;20470;-56
2023/12/25 04:32:15;;;;;;;1.47;0.83;;;;;;;5.75;85.17;95453.25;5135816;27;20442;-55
2023/12/25 04:34:44;;;;;;;0.50;0.50;;;;;;;5.69;85.99;95443.69;5135280;27;20428;-55
2023/12/25 04:37:13;;;;;;;1.57;1.17;;;;;;;5.81;84.06;95441.81;5135974;27;20805;-55
2023/12/25 04:39:42;;;;;;;0.47;0.47;;;;;;;5.77;84.01;95443.31;5136127;27;20518;-55
2023/12/25 04:42:11;;;;;;;2.20;0.53;;;;;;;5.71;83.32;95447.69;5136026;27;20430;-55
2023/12/25 04:44:40;;;;;;;1.17;0.90;;;;;;;5.35;86.25;95460.38;5135795;27;20441;-55
2023/12/25 04:47:10;;;;;;;0.60;0.40;;;;;;;5.01;90.97;95456.78;5135727;27;20450;-55
2023/12/25 04:49:39;;;;;;;1.33;1.10;;;;;;;5.03;91.61;95458.16;5134003;27;20466;-55
2023/12/25 04:52:07;;;;;;;3.43;0.40;;;;;;;5.14;89.84;95462.59;5106374;27;20541;-56
2023/12/25 04:54:36;;;;;;;0.70;0.70;;;;;;;4.87;90.65;95456.25;5134734;27;20442;-56
2023/12/25 04:57:05;;;;;;;2.63;1.03;;;;;;;4.95;88.55;95469.03;5115065;28;20431;-56
2023/12/25 04:59:34;;;;;;;0.63;0.63;;;;;;;4.78;86.09;95409.56;5125548;27;20427;-55
2023/12/25 05:02:03;;;;;;;2.87;2.30;;;;;;;5.08;85.04;95468.75;5135323;27;20491;-55
2023/12/25 05:04:33;;;;;;;0.67;0.67;;;;;;;5.07;84.62;95437.50;5108867;27;20427;-55
2023/12/25 05:07:01;;;;;;;1.57;1.47;;;;;;;5.39;83.80;95469.41;5135098;27;20483;-56
2023/12/25 05:09:30;;;;;;;0.80;0.63;;;;;;;5.27;83.55;95466.78;5135307;27;20613;-56
2023/12/25 05:11:58;;;;;;;1.30;1.20;;;;;;;5.38;84.01;95467.81;5134651;27;20432;-56
2023/12/25 05:14:27;;;;;;;2.40;1.33;;;;;;;5.27;85.42;95469.44;5134888;27;20511;-57
2023/12/25 05:16:56;;;;;;;3.70;0.87;;;;;;;5.33;84.70;95465.88;5134875;27;20514;-55
2023/12/25 05:19:24;;;;;;;2.77;1.07;;;;;;;5.05;84.63;95466.63;5135185;27;20829;-56
2023/12/25 05:21:54;;;;;;;1.13;1.03;;;;;;;4.75;85.20;95476.47;5134700;27;20440;-55
2023/12/25 05:24:23;;;;;;;3.50;2.50;;;;;;;4.37;90.93;95476.09;5134902;27;20470;-56
2023/12/25 05:26:52;;;;;;;2.70;2.50;;;;;;;4.47;91.46;95478.97;5134613;27;20449;-56
2023/12/25 05:29:20;;;;;;;0.87;0.83;;;;;;;4.82;91.08;95479.78;5134616;27;20701;-55
2023/12/25 05:31:49;;;;;;;4.03;1.83;;;;;;;4.78;89.53;95483.88;5135246;27;20431;-57
2023/12/25 05:34:18;;;;;;;2.70;1.30;;;;;;;4.42;94.25;95492.78;5134562;27;20438;-56
2023/12/25 05:36:47;;;;;;;6.27;2.50;;;;;;;4.46;93.96;95480.78;5120942;27;20467;-56
2023/12/25 05:39:17;;;;;;;2.00;1.37;;;;;;;4.25;95.06;95475.28;5134328;27;20445;-56
2023/12/25 05:41:46;;;;;;;2.97;2.30;;;;;;;3.87;100.00;95486.16;5134052;27;20435;-55
2023/12/25 05:44:15;;;;;;;3.07;2.87;;;;;;;3.90;100.00;95475.19;5134504;27;20435;-56
2023/12/25 05:46:43;;;;;;;3.50;3.20;;;;;;;4.24;98.37;95486.78;5134231;27;20801;-55
2023/12/25 05:49:12;;;;;;;11.93;4.00;;;;;;;4.38;96.87;95485.56;5134597;27;20430;-56
2023/12/25 05:51:42;;;;;;;5.03;2.80;;;;;;;4.20;100.00;95475.16;5131398;27;20914;-56
2023/12/25 05:54:11;;;;;;;7.63;4.10;;;;;;;4.11;100.00;95469.44;5123967;27;20442;-55
2023/12/25 05:56:41;;;;;;;5.10;2.57;;;;;;;4.26;100.00;95463.75;5133821;27;20438;-55
2023/12/25 05:59:09;;;;;;;3.00;2.47;;;;;;;4.45;98.11;95455.56;5133958;27;20517;-56
2023/12/25 06:01:38;;;;;;;8.70;4.73;;;;;;;4.49;96.41;95456.72;5133607;27;20487;-57
2023/12/25 06:04:07;;;;;;;6.23;3.50;;;;;;;4.44;96.00;95468.91;5133736;27;21009;-55
2023/12/25 06:06:36;;;;;;;16.20;4.20;;;;;;;4.01;100.00;95465.75;5133728;27;20442;-56
2023/12/25 06:09:05;;;;;;;2.43;1.70;;;;;;;3.94;100.00;95486.03;5134118;27;20487;-56
2023/12/25 06:11:35;;;;;;;5.57;4.00;;;;;;;3.32;100.00;95502.97;5133136;27;20895;-56
2023/12/25 06:14:05;;;;;;;4.50;4.23;;;;;;;3.14;100.00;95506.38;5119672;27;20467;-56
2023/12/25 06:16:34;;;;;;;4.33;2.30;;;;;;;3.32;100.00;95498.53;5133828;27;20438;-56
2023/12/25 06:19:03;;;;;;;5.77;1.70;;;;;;;3.44;100.00;95515.09;5133940;27;20438;-56
2023/12/25 06:21:31;;;;;;;3.33;2.43;;;;;;;3.43;98.25;95503.03;5133491;27;20481;-56
2023/12/25 06:24:00;;;;;;;8.37;2.07;;;;;;;3.31;95.51;95457.66;5131996;27;20514;-56
2023/12/25 06:26:29;;;;;;;1.13;1.10;;;;;;;3.59;94.08;95484.06;5133744;27;20514;-55
2023/12/25 06:28:57;;;;;;;8.90;2.27;;;;;;;3.84;94.07;95492.59;5132883;27;20484;-56
2023/12/25 06:31:27;;;;;;;6.90;2.30;;;;;;;3.73;96.11;95485.50;5133606;27;20831;-57
2023/12/25 06:33:56;;;;;;;3.50;2.07;;;;;;;3.44;100.00;95485.50;5132732;27;20440;-56
2023/12/25 06:36:25;;;;;;;7.63;2.83;;;;;;;3.41;100.00;95463.16;5133299;27;20442;-56
2023/12/25 06:38:53;;;;;;;2.40;2.20;;;;;;;3.76;100.00;95452.81;5132841;27;20435;-55
2023/12/25 06:41:22;;;;;;;8.80;2.53;;;;;;;4.06;99.80;95471.13;5133227;27;20477;-56
2023/12/25 06:43:51;;;;;;;3.80;3.60;;;;;;;4.11;99.58;95474.69;5133234;27;20435;-56
2023/12/25 06:46:19;;;;;;;5.60;3.67;;;;;;;4.30;98.04;95475.41;5133128;27;20450;-56
2023/12/25 06:48:49;;;;;;;6.83;2.70;;;;;;;4.66;96.88;95477.00;5133108;27;20431;-56
2023/12/25 06:51:18;;;;;;;4.60;4.30;;;;;;;4.90;95.36;95482.06;5119332;27;20482;-57
2023/12/25 06:53:46;;;;;;;4.10;3.77;;;;;;;5.20;92.66;95487.16;5106560;27;20438;-57
2023/12/25 06:56:15;;;;;;;3.30;3.10;;;;;;;5.77;88.04;95493.25;5132118;27;20470;-58
2023/12/25 06:58:43;;;;;;;2.13;1.93;;;;;;;5.98;85.11;95486.56;5133063;27;20438;-58
2023/12/25 07:01:12;;;;;;;3.20;2.97;;;;;;;6.42;83.66;95490.25;5132704;27;20502;-58
2023/12/25 07:03:40;;;;;;;17.37;4.27;;;;;;;6.72;81.34;95509.97;5132594;27;20829;-56
2023/12/25 07:06:10;;;;;;;10.50;2.17;;;;;;;6.87;78.71;95498.84;5132857;27;20614;-56
2023/12/25 07:08:39;;;;;;;3.67;3.37;;;;;;;7.39;76.60;95501.91;5132840;27;20491;-57
2023/12/25 07:11:08;;;;;;;4.40;1.27;;;;;;;7.46;76.35;95494.66;5132246;27;20549;-57
2023/12/25 07:13:37;;;;;;;1.57;1.47;;;;;;;7.79;75.07;95496.34;5133128;27;20438;-56
2023/12/25 07:16:06;;;;;;;1.47;1.37;;;;;;;8.16;74.34;95484.88;5132451;27;20542;-57
2023/12/25 07:18:34;;;;;;;3.70;3.40;;;;;;;8.87;71.27;95481.00;5132526;27;20442;-57
2023/12/25 07:21:03;;;;;;;1.63;1.60;;;;;;;9.26;70.31;95465.63;5132040;27;20492;-56
2023/12/25 07:23:33;;;;;;;3.30;2.43;;;;;;;9.27;68.90;95477.00;5132811;27;20435;-55
2023/12/25 07:26:04;;;;;;;3.33;3.13;;;;;;;9.11;69.65;95468.19;5132007;27;20972;-58
2023/12/25 07:28:33;;;;;;;4.73;4.40;;;;;;;9.06;69.14;95464.75;5132536;27;20930;-56
2023/12/25 07:31:02;;;;;;;23.80;5.97;;;;;;;9.17;68.47;95474.31;5132380;27;20884;-56
2023/12/25 07:33:33;;;;;;;25.03;6.07;;;;;;;9.32;68.38;95469.91;5132720;27;20866;-56
2023/12/25 07:36:02;;;;;;;3.83;3.63;;;;;;;9.90;66.75;95468.00;5132680;27;20495;-56
2023/12/25 07:38:30;;;;;;;6.30;4.40;;;;;;;10.27;65.12;95444.78;5132299;27;20511;-57
2023/12/25 07:41:01;;;;;;;5.47;5.17;;;;;;;10.81;63.06;95453.00;5131894;27;20484;-58
2023/12/25 07:43:31;;;;;;;4.60;2.97;;;;;;;11.35;61.68;95456.63;5132012;28;20446;-53
2023/12/25 07:46:00;;;;;;;1.87;1.77;;;;;;;11.42;62.35;95465.09;5132235;27;21006;-51
2023/12/25 07:48:28;;;;;;;4.07;3.20;;;;;;;11.53;61.22;95459.75;5132036;28;20526;-49
2023/12/25 07:50:57;;;;;;;6.10;5.80;;;;;;;11.94;61.69;95463.84;5131671;28;20529;-48
2023/12/25 07:53:25;;;;;;;16.23;5.83;;;;;;;12.61;60.94;95445.31;5131773;27;20903;-48
2023/12/25 07:55:54;;;;;;;12.60;5.70;;;;;;;13.01;57.90;95468.09;5132057;28;20942;-49
2023/12/25 07:58:24;;;;;;;5.43;4.00;;;;;;;13.79;57.55;95465.94;5131460;27;20985;-49
2023/12/25 08:00:53;;;;;;;4.23;3.10;;;;;;;14.23;54.46;95468.31;5132098;27;20450;-51
2023/12/25 08:03:22;;;;;;;7.20;3.17;;;;;;;14.17;53.66;95479.31;5131909;28;20517;-52
2023/12/25 08:05:50;;;;;;;3.23;3.03;;;;;;;13.75;53.75;95480.94;5119066;27;20448;-55
2023/12/25 08:08:19;;;;;;;1.83;1.73;;;;;;;14.64;57.21;95492.56;5131449;28;20444;-59
2023/12/25 08:10:48;;;;;;;1.60;1.37;;;;;;;15.45;54.23;95500.03;5131962;28;20524;-61
2023/12/25 08:13:17;;;;;;;5.57;2.63;;;;;;;15.94;50.27;95510.03;5131823;27;20438;-61
2023/12/25 08:15:47;;;;;;;4.93;2.73;;;;;;;15.61;49.65;95513.91;5131839;27;20806;-61
2023/12/25 08:18:16;;;;;;;3.60;2.63;;;;;;;15.61;50.49;95516.59;5132280;28;20797;-61
2023/12/25 08:20:45;;;;;;;3.53;3.27;;;;;;;16.21;49.04;95506.56;5131674;27;20511;-61
2023/12/25 08:23:14;;;;;;;4.00;2.10;;;;;;;16.36;48.60;95498.22;5131535;28;21007;-60
2023/12/25 08:25:42;;;;;;;3.13;2.93;;;;;;;16.74;47.46;95488.03;5129921;27;20535;-61
2023/12/25 08:28:11;;;;;;;2.97;1.70;;;;;;;16.28;48.59;95490.91;5120874;28;20500;-59
2023/12/25 08:30:39;;;;;;;3.73;3.63;;;;;;;16.62;47.67;95495.81;5128161;28;20431;-59
2023/12/25 08:33:09;;;;;;;3.03;2.83;;;;;;;16.03;48.96;95429.94;5132116;28;20450;-59
2023/12/25 08:35:38;;;;;;;3.90;3.60;;;;;;;16.61;48.73;95472.81;5131472;28;20431;-60
2023/12/25 08:38:07;;;;;;;4.63;3.27;;;;;;;17.10;47.96;95465.44;5131717;28;20961;-60
2023/12/25 08:40:35;;;;;;;2.00;1.90;;;;;;;17.66;46.04;95467.47;5131434;28;20514;-58
2023/12/25 08:43:06;;;;;;;1.87;1.77;;;;;;;17.80;46.07;95471.94;5131831;27;20431;-59
2023/12/25 08:45:35;;;;;;;3.27;2.50;;;;;;;16.75;46.02;95479.69;5130983;27;20953;-59
2023/12/25 08:48:04;;;;;;;1.13;1.13;;;;;;;16.15;47.64;95451.59;5135400;27;20794;-60
2023/12/25 08:50:34;;;;;;;2.20;2.00;;;;;;;15.61;50.47;95487.19;5133047;27;20445;-59
2023/12/25 08:53:03;;;;;;;1.80;1.70;;;;;;;15.31;49.80;95493.03;5132360;27;20474;-59
2023/12/25 08:55:31;;;;;;;1.53;1.43;;;;;;;16.11;52.05;95485.38;5133157;27;20442;-58
2023/12/25 08:58:00;;;;;;;1.50;1.40;;;;;;;15.64;47.77;95451.84;5132660;27;20446;-59
2023/12/25 09:00:29;;;;;;;4.10;3.90;;;;;;;16.74;48.40;95488.81;5133415;27;20507;-59
2023/12/25 09:02:58;;;;;;;2.00;1.43;;;;;;;17.24;46.37;95480.63;5132895;27;20534;-58
2023/12/25 09:05:26;;;;;;;2.87;1.27;;;;;;;17.34;45.83;95483.06;5124679;27;20450;-58
2023/12/25 09:07:56;;;;;;;1.43;1.33;;;;;;;18.02;43.70;95474.53;5131720;27;20430;-58
2023/12/25 09:10:25;;;;;;;0.80;0.80;;;;;;;17.26;45.50;95417.63;5135398;27;20435;-57
2023/12/25 09:12:54;;;;;;;0.90;0.90;;;;;;;17.55;44.72;95468.06;5134490;27;20624;-58
2023/12/25 09:15:22;;;;;;;1.40;1.00;;;;;;;17.18;45.25;95431.00;5135463;27;20434;-58
2023/12/25 09:17:51;;;;;;;1.43;1.43;;;;;;;17.87;47.03;95464.22;5134583;27;20437;-58
2023/12/25 09:20:20;;;;;;;3.30;3.07;;;;;;;16.96;45.69;95474.63;5134648;27;20906;-57
2023/12/25 09:22:49;;;;;;;3.07;2.83;;;;;;;17.05;45.07;95467.47;5134632;27;20434;-58
2023/12/25 09:25:19;;;;;;;3.13;2.63;;;;;;;17.52;48.33;95455.25;5135058;27;20537;-58
2023/12/25 09:27:48;;;;;;;1.63;1.53;;;;;;;17.90;43.98;95450.22;5134583;27;20496;-57
2023/12/25 09:30:16;;;;;;;3.60;3.40;;;;;;;18.17;45.64;95441.91;5134862;27;20825;-57
2023/12/25 09:32:45;;;;;;;2.27;2.00;;;;;;;18.39;44.73;95455.19;5108729;27;20478;-57
2023/12/25 09:35:15;;;;;;;2.17;1.83;;;;;;;18.35;44.02;95427.41;5134589;27;20521;-57
2023/12/25 09:37:44;;;;;;;3.30;1.80;;;;;;;18.23;44.90;95435.28;5135105;27;20438;-58
2023/12/25 09:40:13;;;;;;;2.00;1.90;;;;;;;18.71;43.72;95443.22;5134249;27;20438;-63
2023/12/25 09:42:45;;;;;;;1.07;1.07;;;;;;;19.31;42.06;95443.09;5134675;27;20509;-54
2023/12/25 09:45:16;;;;;;;3.63;2.60;;;;;;;19.26;41.64;95445.97;5134159;27;20439;-54
2023/12/25 09:47:45;;;;;;;11.53;3.30;;;;;;;19.03;42.16;95438.13;5134323;27;20491;-54
2023/12/25 09:50:15;;;;;;;2.67;1.43;;;;;;;19.46;41.79;95434.53;5134204;27;20457;-53
2023/12/25 09:52:44;;;;;;;1.70;1.60;;;;;;;20.04;40.91;95429.19;5134071;27;20539;-55
2023/12/25 09:55:12;;;;;;;2.03;1.90;;;;;;;19.62;42.08;95414.09;5133548;27;20470;-54
2023/12/25 09:57:44;;;;;;;3.03;2.10;;;;;;;19.33;42.40;95401.34;5132890;27;20438;-54
2023/12/25 10:00:13;;;;;;;1.70;1.40;;;;;;;19.12;41.70;95421.19;5134575;27;20431;-53
2023/12/25 10:02:46;;;;;;;7.23;3.50;;;;;;;18.62;42.60;95408.31;5133830;27;20485;-54
2023/12/25 10:05:15;;;;;;;2.67;2.57;;;;;;;18.74;42.36;95405.78;5134030;27;20986;-53
2023/12/25 10:07:43;;;;;;;4.30;4.00;;;;;;;18.98;43.35;95398.00;5133116;27;20438;-53
2023/12/25 10:10:12;;;;;;;5.67;2.87;;;;;;;19.97;41.96;95399.34;5133857;27;20439;-53
2023/12/25 10:12:45;;;;;;;2.23;2.13;;;;;;;20.66;39.38;95375.41;5132766;27;20470;-55
2023/12/25 10:15:31;;;;;;;3.17;2.97;;;;;;;21.26;41.24;95372.09;5133111;27;20504;-55
2023/12/25 10:18:04;;;;;;;1.90;1.80;;;;;;;21.48;39.25;95377.06;5133587;27;20836;-55
2023/12/25 10:20:33;;;;;;;1.43;1.10;;;;;;;22.48;38.42;95351.19;5133292;27;20434;-55
2023/12/25 10:23:12;;;;;;;2.30;1.30;;;;;;;22.95;36.40;95348.63;5133052;27;20447;-56
2023/12/25 10:25:50;;;;;;;1.20;0.90;;;;;;;21.72;37.68;95375.50;5133348;27;20457;-55
2023/12/25 10:28:25;;;;;;;1.40;1.30;;;;;;;21.46;37.53;95303.81;5133362;27;20461;-54
2023/12/25 10:31:00;;;;;;;7.17;1.57;;;;;;;21.59;38.11;95314.56;5132705;27;20442;-57
2023/12/25 10:33:31;;;;;;;0.97;0.97;;;;;;;21.18;37.69;95356.00;5133524;27;20473;-54
2023/12/25 10:36:04;;;;;;;4.10;1.43;;;;;;;20.80;37.28;95356.25;5125828;27;20446;-54
2023/12/25 10:38:35;;;;;;;1.57;0.80;;;;;;;21.30;36.98;95351.44;5127810;27;20517;-54
2023/12/25 10:41:20;;;;;;;3.17;0.80;;;;;;;21.80;36.47;95350.31;5132984;27;20434;-54
2023/12/25 10:43:55;;;;;;;10.00;0.83;;;;;;;21.93;36.52;95344.59;5131534;27;21025;-62
2023/12/25 10:46:24;;;;;;;3.23;1.10;;;;;;;21.05;36.85;95330.94;5133364;27;20437;-63
2023/12/25 10:48:55;;;;;;;3.70;1.00;;;;;;;21.63;38.05;95337.06;5132743;27;20996;-63
2023/12/25 10:51:30;;;;;;;5.37;2.70;;;;;;;22.03;35.48;95344.13;5132695;27;20505;-63
2023/12/25 10:54:01;;;;;;;16.63;6.67;;;;;;;21.65;35.28;95341.00;5133087;27;20549;-63
2023/12/25 10:56:33;;;;;;;2.50;1.90;;;;;;;22.47;35.61;95338.81;5132603;27;20499;-56
2023/12/25 10:59:16;;;;;;;1.17;1.17;;;;;;;21.19;36.83;95336.03;5132561;27;20529;-54
2023/12/25 11:01:47;;;;;;;0.67;0.60;;;;;;;21.70;36.07;95326.50;5132492;27;20498;-55
2023/12/25 11:04:17;;;;;;;0.70;0.70;;;;;;;22.04;36.27;95332.19;5132529;27;20446;-55
2023/12/25 11:06:47;;;;;;;1.03;0.80;;;;;;;22.19;36.49;95329.91;5132419;27;20430;-56
2023/12/25 11:09:17;;;;;;;1.97;1.80;;;;;;;22.78;35.81;95328.13;5132091;27;20445;-55
2023/12/25 11:11:46;;;;;;;1.10;1.00;;;;;;;23.61;35.05;95317.09;5124736;27;20943;-56
2023/12/25 11:14:17;;;;;;;0.97;0.77;;;;;;;24.07;32.74;95246.94;5121265;27;20497;-55
2023/12/25 11:16:47;;;;;;;2.10;0.83;;;;;;;24.34;33.06;95317.16;5129425;27;20442;-57
2023/12/25 11:19:16;;;;;;;0.50;0.40;;;;;;;24.16;33.21;95309.84;5132247;27;20441;-56
2023/12/25 11:21:45;;;;;;;1.07;0.97;;;;;;;23.30;34.15;95273.84;5132216;27;20849;-56
2023/12/25 11:24:14;;;;;;;0.57;0.57;;;;;;;24.63;33.03;95291.41;5132309;27;20499;-60
2023/12/25 11:26:44;;;;;;;1.33;0.93;;;;;;;24.13;33.58;95303.19;5132169;27;20434;-58
2023/12/25 11:29:12;;;;;;;1.00;0.93;;;;;;;24.30;33.34;95296.56;5132597;27;20434;-58
2023/12/25 11:31:47;;;;;;;1.53;1.43;;;;;;;24.14;33.11;95255.22;5132147;27;20541;-59
2023/12/25 11:34:21;;;;;;;2.47;2.37;;;;;;;23.22;34.40;95274.78;5131855;27;20470;-59
2023/12/25 11:36:52;;;;;;;2.93;1.97;;;;;;;23.78;33.81;95267.97;5132279;27;20881;-59
2023/12/25 11:39:24;;;;;;;4.93;2.00;;;;;;;20.28;33.09;94747.69;5132622;27;20430;-54
2023/12/25 11:41:53;;;;;;;3.50;2.73;;;;;;;23.86;34.21;95285.94;5132063;27;20446;-54
2023/12/25 11:44:32;;;;;;;2.00;1.90;;;;;;;23.96;33.35;95276.47;5132353;27;20434;-54
2023/12/25 11:47:04;;;;;;;1.70;1.60;;;;;;;24.41;33.09;95276.66;5131999;28;20882;-54
2023/12/25 11:49:33;;;;;;;4.07;2.07;;;;;;;24.77;32.72;95278.13;5120011;28;20521;-55